Time;durP1;ratioP1;P1;durP2;ratioP2;P2;SDS_P1;SDS_P2;PMS_P1;PMS_P2;Temp;Humidity;BMP_temperature;BMP_pressure;BME280_temperature;BME280_humidity;BME280_pressure;Samples;Min_cycle;Max_cycle;Signal;HPM_P1;HPM_P2
2023/04/06 00:01:19;;;;;;;;;13.00;13.00;;;;;;;;5049808;29;8814;-67
2023/04/06 00:03:50;;;;;;;;;14.00;14.00;;;;;;;;5030560;29;8818;-67
2023/04/06 00:06:21;;;;;;;;;9.20;9.00;;;;;;;;5055894;29;8893;-66
2023/04/06 00:08:52;;;;;;;;;2.00;2.00;;;;;;;;5050442;29;8789;-67
2023/04/06 00:11:24;;;;;;;;;1.60;1.60;;;;;;;;5049108;29;8825;-67
2023/04/06 00:13:55;;;;;;;;;1.40;1.40;;;;;;;;5033253;29;8848;-67
2023/04/06 00:16:26;;;;;;;;;3.60;3.60;;;;;;;;5034114;29;8944;-67
2023/04/06 00:18:57;;;;;;;;;5.80;5.80;;;;;;;;5049528;29;8778;-67
2023/04/06 00:21:30;;;;;;;;;2.00;2.00;;;;;;;;5049692;29;8795;-67
2023/04/06 00:24:03;;;;;;;;;7.40;7.40;;;;;;;;5049446;29;8782;-67
2023/04/06 00:26:53;;;;;;;;;4.00;4.00;;;;;;;;5052044;29;8889;-66
2023/04/06 00:29:23;;;;;;;;;5.00;5.00;;;;;;;;5048985;29;8925;-67
2023/04/06 00:31:54;;;;;;;;;3.20;3.20;;;;;;;;5049191;29;11517;-67
2023/04/06 00:34:26;;;;;;;;;0.60;0.60;;;;;;;;5048926;29;8790;-67
2023/04/06 00:36:57;;;;;;;;;1.00;1.00;;;;;;;;5033551;29;8802;-67
2023/04/06 00:39:28;;;;;;;;;0.00;0.00;;;;;;;;5033838;29;8778;-66
2023/04/06 00:42:00;;;;;;;;;0.00;0.00;;;;;;;;5066036;29;8786;-66
2023/04/06 00:44:31;;;;;;;;;2.40;2.40;;;;;;;;5049348;29;8912;-66
2023/04/06 00:47:03;;;;;;;;;3.60;3.60;;;;;;;;5048877;29;8813;-67
2023/04/06 00:49:53;;;;;;;;;6.00;6.00;;;;;;;;5048528;29;9427;-66
2023/04/06 00:52:24;;;;;;;;;11.20;11.20;;;;;;;;5066149;29;8782;-66
2023/04/06 00:54:55;;;;;;;;;2.40;2.40;;;;;;;;5048699;29;8883;-67
2023/04/06 00:57:27;;;;;;;;;12.20;12.20;;;;;;;;5033232;29;8804;-66
2023/04/06 01:00:00;;;;;;;;;16.20;15.60;;;;;;;;5033800;29;8770;-66
2023/04/06 01:02:32;;;;;;;;;2.40;1.60;;;;;;;;5048703;29;8770;-66
2023/04/06 01:05:03;;;;;;;;;5.60;5.60;;;;;;;;5048973;29;8845;-66
2023/04/06 01:07:43;;;;;;;;;4.00;4.00;;;;;;;;5066016;29;8770;-66
2023/04/06 01:10:25;;;;;;;;;0.00;0.00;;;;;;;;5018250;29;8851;-66
2023/04/06 01:13:00;;;;;;;;;0.00;0.00;;;;;;;;5018575;29;8809;-66
2023/04/06 01:15:49;;;;;;;;;0.40;0.40;;;;;;;;5035930;29;8810;-66
2023/04/06 01:18:39;;;;;;;;;1.60;1.60;;;;;;;;5051442;29;8794;-67
2023/04/06 01:21:20;;;;;;;;;4.00;4.00;;;;;;;;5033356;29;8810;-66
2023/04/06 01:24:17;;;;;;;;;0.20;0.20;;;;;;;;5027219;29;8817;-67
2023/04/06 01:27:20;;;;;;;;;5.60;5.60;;;;;;;;5050162;29;8807;-66
2023/04/06 01:30:09;;;;;;;;;19.80;19.80;;;;;;;;5063571;29;8844;-67
2023/04/06 01:32:50;;;;;;;;;16.40;16.40;;;;;;;;5050150;29;8790;-67
2023/04/06 01:35:40;;;;;;;;;12.00;12.00;;;;;;;;5035121;29;8855;-67
2023/04/06 01:38:18;;;;;;;;;12.80;12.80;;;;;;;;5048824;29;8936;-67
2023/04/06 01:40:52;;;;;;;;;12.80;12.80;;;;;;;;5032014;29;8826;-68
2023/04/06 01:43:26;;;;;;;;;8.00;8.00;;;;;;;;5032870;29;8858;-67
2023/04/06 01:46:06;;;;;;;;;16.60;16.00;;;;;;;;5048406;29;8802;-67
2023/04/06 01:48:44;;;;;;;;;18.20;18.20;;;;;;;;5018304;29;9569;-66
2023/04/06 01:51:33;;;;;;;;;12.20;12.20;;;;;;;;5064964;29;8913;-68
2023/04/06 01:54:07;;;;;;;;;12.60;12.60;;;;;;;;5032486;29;8798;-68
2023/04/06 01:56:57;;;;;;;;;10.40;10.40;;;;;;;;5051154;29;8802;-68
2023/04/06 01:59:44;;;;;;;;;13.20;12.20;;;;;;;;5048473;29;9534;-68
2023/04/06 02:02:44;;;;;;;;;36.20;36.20;;;;;;;;5068558;29;8790;-67
2023/04/06 02:05:23;;;;;;;;;24.40;24.00;;;;;;;;5052353;29;8821;-68
2023/04/06 02:07:56;;;;;;;;;18.60;18.60;;;;;;;;5036304;29;8809;-66
2023/04/06 02:10:35;;;;;;;;;22.40;21.60;;;;;;;;5027621;29;8879;-66
2023/04/06 02:13:14;;;;;;;;;26.20;23.60;;;;;;;;5031822;29;8796;-66
2023/04/06 02:15:50;;;;;;;;;9.00;9.00;;;;;;;;5047849;29;8812;-67
2023/04/06 02:18:40;;;;;;;;;18.60;18.60;;;;;;;;5049168;29;8792;-67
2023/04/06 02:21:11;;;;;;;;;21.00;20.00;;;;;;;;5035766;29;8820;-67
2023/04/06 02:24:00;;;;;;;;;24.20;22.80;;;;;;;;5050410;29;8782;-67
2023/04/06 02:26:50;;;;;;;;;58.00;48.40;;;;;;;;5054258;29;8814;-67
2023/04/06 02:29:21;;;;;;;;;74.75;55.75;;;;;;;;5020507;29;8817;-68
2023/04/06 02:31:52;;;;;;;;;79.20;61.20;;;;;;;;5051137;29;9542;-67
2023/04/06 02:34:26;;;;;;;;;46.40;41.60;;;;;;;;5050060;29;8794;-67
2023/04/06 02:36:58;;;;;;;;;34.20;33.60;;;;;;;;5035671;29;9565;-67
2023/04/06 02:39:47;;;;;;;;;29.80;29.80;;;;;;;;5067897;29;8778;-67
2023/04/06 02:42:18;;;;;;;;;19.40;16.60;;;;;;;;5066617;29;8820;-67
2023/04/06 02:44:52;;;;;;;;;5.00;5.00;;;;;;;;5066667;29;9490;-67
2023/04/06 02:47:25;;;;;;;;;3.20;3.20;;;;;;;;5050449;29;8829;-67
2023/04/06 02:49:57;;;;;;;;;4.40;4.40;;;;;;;;5051163;29;9505;-67
2023/04/06 02:52:28;;;;;;;;;0.00;0.00;;;;;;;;5067815;29;8798;-66
2023/04/06 02:54:58;;;;;;;;;2.00;2.00;;;;;;;;5050430;29;8845;-67
2023/04/06 02:57:34;;;;;;;;;4.80;4.80;;;;;;;;5067704;29;11456;-67
2023/04/06 03:00:06;;;;;;;;;12.60;12.60;;;;;;;;5067427;29;8825;-67
2023/04/06 03:02:56;;;;;;;;;1.40;1.40;;;;;;;;5050552;29;8801;-67
2023/04/06 03:05:27;;;;;;;;;5.00;5.00;;;;;;;;5050093;29;8810;-67
2023/04/06 03:07:58;;;;;;;;;9.60;9.60;;;;;;;;5034803;29;8873;-67
2023/04/06 03:10:40;;;;;;;;;8.60;7.80;;;;;;;;5050759;29;9710;-67
2023/04/06 03:13:11;;;;;;;;;0.00;0.00;;;;;;;;5067010;29;8812;-67
2023/04/06 03:16:02;;;;;;;;;0.00;0.00;;;;;;;;5066636;29;8814;-67
2023/04/06 03:18:51;;;;;;;;;18.60;18.60;;;;;;;;5067249;29;8821;-67
2023/04/06 03:21:22;;;;;;;;;8.60;8.60;;;;;;;;5050412;29;8961;-67
2023/04/06 03:23:56;;;;;;;;;1.80;1.80;;;;;;;;5066764;29;8893;-67
2023/04/06 03:26:27;;;;;;;;;0.40;0.40;;;;;;;;5050297;29;8810;-67
2023/04/06 03:28:58;;;;;;;;;0.00;0.00;;;;;;;;5050148;29;8824;-67
2023/04/06 03:31:33;;;;;;;;;4.60;4.00;;;;;;;;5066877;29;8813;-67
2023/04/06 03:34:22;;;;;;;;;2.40;2.40;;;;;;;;5065638;29;8832;-67
2023/04/06 03:36:53;;;;;;;;;0.00;0.00;;;;;;;;5066724;29;9534;-66
2023/04/06 03:39:43;;;;;;;;;7.40;7.40;;;;;;;;5060048;29;11451;-66
2023/04/06 03:42:17;;;;;;;;;5.00;5.00;;;;;;;;5035028;29;9541;-67
2023/04/06 03:44:56;;;;;;;;;0.60;0.60;;;;;;;;5035214;29;9548;-67
2023/04/06 03:47:28;;;;;;;;;0.00;0.00;;;;;;;;5034372;29;8813;-67
2023/04/06 03:50:03;;;;;;;;;0.00;0.00;;;;;;;;5066444;29;8841;-67
2023/04/06 03:52:36;;;;;;;;;2.40;2.40;;;;;;;;5050006;29;9617;-67
2023/04/06 03:55:07;;;;;;;;;0.00;0.00;;;;;;;;5034012;29;8821;-67
2023/04/06 03:57:41;;;;;;;;;1.40;1.40;;;;;;;;5049937;29;8830;-67
2023/04/06 04:00:12;;;;;;;;;2.00;2.00;;;;;;;;5034604;29;8802;-67
2023/04/06 04:02:46;;;;;;;;;5.60;5.60;;;;;;;;5048948;29;8797;-67
2023/04/06 04:05:35;;;;;;;;;0.00;0.00;;;;;;;;5049391;29;8844;-67
2023/04/06 04:08:06;;;;;;;;;0.00;0.00;;;;;;;;5062990;29;8930;-68
2023/04/06 04:10:37;;;;;;;;;0.00;0.00;;;;;;;;5069147;29;9013;-66
2023/04/06 04:13:08;;;;;;;;;0.00;0.00;;;;;;;;5086316;29;8925;-66
2023/04/06 04:15:39;;;;;;;;;1.20;1.20;;;;;;;;5053185;29;8787;-67
2023/04/06 04:18:10;;;;;;;;;41.50;29.50;;;;;;;;5052505;29;8840;-67
2023/04/06 04:20:41;;;;;;;;;0.00;0.00;;;;;;;;5049523;29;8793;-67
2023/04/06 04:23:14;;;;;;;;;0.00;0.00;;;;;;;;5032956;29;9554;-67
2023/04/06 04:25:45;;;;;;;;;0.00;0.00;;;;;;;;5033788;29;8825;-67
2023/04/06 04:28:16;;;;;;;;;0.00;0.00;;;;;;;;5065660;29;8786;-67
2023/04/06 04:30:48;;;;;;;;;0.00;0.00;;;;;;;;5033407;29;8822;-66
2023/04/06 04:33:19;;;;;;;;;1.40;1.40;;;;;;;;5049421;29;8806;-67
2023/04/06 04:35:50;;;;;;;;;0.00;0.00;;;;;;;;5049023;29;8813;-67
2023/04/06 04:38:24;;;;;;;;;0.00;0.00;;;;;;;;5048764;29;8790;-67
2023/04/06 04:40:58;;;;;;;;;0.40;0.40;;;;;;;;5048062;29;8810;-67
2023/04/06 04:43:29;;;;;;;;;1.40;1.40;;;;;;;;5033111;29;9534;-66
2023/04/06 04:46:03;;;;;;;;;0.60;0.60;;;;;;;;5017822;29;8814;-67
2023/04/06 04:48:52;;;;;;;;;0.00;0.00;;;;;;;;5035043;29;8985;-66
2023/04/06 04:51:24;;;;;;;;;0.00;0.00;;;;;;;;5033095;29;8956;-67
2023/04/06 04:54:07;;;;;;;;;0.20;0.20;;;;;;;;5065751;29;8794;-67
2023/04/06 04:56:38;;;;;;;;;1.00;1.00;;;;;;;;5048439;29;8844;-67
2023/04/06 04:59:36;;;;;;;;;0.00;0.00;;;;;;;;5044309;29;10328;-66
2023/04/06 05:02:16;;;;;;;;;2.80;2.80;;;;;;;;5018829;29;8802;-69
2023/04/06 05:04:59;;;;;;;;;16.40;16.40;;;;;;;;5010522;29;8827;-70
2023/04/06 05:07:34;;;;;;;;;0.00;0.00;;;;;;;;5023990;29;8828;-69
2023/04/06 05:10:09;;;;;;;;;3.40;3.40;;;;;;;;5031502;29;9673;-70
2023/04/06 05:12:47;;;;;;;;;3.00;3.00;;;;;;;;5048277;29;8801;-69
2023/04/06 05:15:18;;;;;;;;;0.00;0.00;;;;;;;;5062192;29;8936;-69
2023/04/06 05:17:50;;;;;;;;;0.00;0.00;;;;;;;;5031444;29;8841;-69
2023/04/06 05:20:26;;;;;;;;;0.00;0.00;;;;;;;;5047184;29;8825;-69
2023/04/06 05:22:57;;;;;;;;;1.80;1.80;;;;;;;;5062844;29;8809;-69
2023/04/06 05:25:28;;;;;;;;;0.00;0.00;;;;;;;;5046922;29;8813;-70
2023/04/06 05:28:04;;;;;;;;;0.00;0.00;;;;;;;;5031275;29;8854;-70
2023/04/06 05:30:42;;;;;;;;;0.00;0.00;;;;;;;;5046613;29;8871;-70
2023/04/06 05:33:14;;;;;;;;;0.00;0.00;;;;;;;;5050400;29;8800;-70
2023/04/06 05:36:05;;;;;;;;;0.00;0.00;;;;;;;;5034224;29;8832;-70
2023/04/06 05:38:36;;;;;;;;;0.00;0.00;;;;;;;;5067292;29;8802;-72
2023/04/06 05:41:17;;;;;;;;;6.60;6.60;;;;;;;;5002241;29;8803;-71
2023/04/06 05:44:06;;;;;;;;;0.00;0.00;;;;;;;;5047215;29;8815;-71
2023/04/06 05:46:38;;;;;;;;;0.00;0.00;;;;;;;;5046714;29;8811;-70
2023/04/06 05:49:12;;;;;;;;;0.00;0.00;;;;;;;;5046197;29;8828;-72
2023/04/06 05:51:44;;;;;;;;;10.60;10.60;;;;;;;;5040136;29;9686;-70
2023/04/06 05:54:15;;;;;;;;;13.25;13.25;;;;;;;;5032393;29;8797;-70
2023/04/06 05:56:46;;;;;;;;;0.00;0.00;;;;;;;;5031060;29;9203;-72
2023/04/06 05:59:17;;;;;;;;;1.00;1.00;;;;;;;;5047233;29;8904;-71
2023/04/06 06:01:49;;;;;;;;;0.00;0.00;;;;;;;;5047781;29;8818;-71
2023/04/06 06:04:22;;;;;;;;;0.00;0.00;;;;;;;;5059375;29;8829;-71
2023/04/06 06:06:56;;;;;;;;;0.00;0.00;;;;;;;;5049401;29;8793;-71
2023/04/06 06:09:42;;;;;;;;;0.00;0.00;;;;;;;;5034656;29;8813;-71
2023/04/06 06:12:25;;;;;;;;;0.00;0.00;;;;;;;;5066037;29;8953;-71
2023/04/06 06:14:56;;;;;;;;;1.00;1.00;;;;;;;;5049090;29;8830;-70
2023/04/06 06:17:29;;;;;;;;;1.60;1.60;;;;;;;;5033159;29;8880;-69
2023/04/06 06:20:01;;;;;;;;;0.00;0.00;;;;;;;;5030036;29;8820;-68
2023/04/06 06:22:34;;;;;;;;;2.40;2.40;;;;;;;;5030045;29;8819;-66
2023/04/06 06:25:07;;;;;;;;;0.00;0.00;;;;;;;;5034755;29;8848;-67
2023/04/06 06:27:38;;;;;;;;;0.00;0.00;;;;;;;;5033867;29;8793;-67
2023/04/06 06:30:10;;;;;;;;;3.00;3.00;;;;;;;;5048890;29;8838;-75
2023/04/06 06:33:01;;;;;;;;;9.00;8.80;;;;;;;;5036253;29;8813;-75
2023/04/06 06:35:35;;;;;;;;;0.00;0.00;;;;;;;;5019274;29;8814;-75
2023/04/06 06:38:09;;;;;;;;;0.00;0.00;;;;;;;;5049512;29;8820;-75
2023/04/06 06:40:41;;;;;;;;;0.00;0.00;;;;;;;;5035943;29;8794;-75
2023/04/06 06:43:13;;;;;;;;;0.00;0.00;;;;;;;;5035892;29;9510;-75
2023/04/06 06:46:00;;;;;;;;;0.00;0.00;;;;;;;;5036987;29;8865;-76
2023/04/06 06:48:32;;;;;;;;;0.00;0.00;;;;;;;;5033952;29;8794;-75
2023/04/06 06:51:03;;;;;;;;;0.00;0.00;;;;;;;;5035580;29;8893;-75
2023/04/06 06:53:35;;;;;;;;;0.00;0.00;;;;;;;;5049738;29;8809;-75
2023/04/06 06:56:06;;;;;;;;;0.00;0.00;;;;;;;;5035106;29;8916;-75
2023/04/06 06:58:38;;;;;;;;;0.00;0.00;;;;;;;;5020496;29;8917;-75
2023/04/06 07:01:09;;;;;;;;;0.00;0.00;;;;;;;;5035817;29;8825;-75
2023/04/06 07:03:41;;;;;;;;;0.00;0.00;;;;;;;;5035359;29;8802;-75
2023/04/06 07:06:12;;;;;;;;;0.00;0.00;;;;;;;;5051299;29;8793;-75
2023/04/06 07:08:45;;;;;;;;;0.80;0.80;;;;;;;;5020507;29;9589;-75
2023/04/06 07:11:16;;;;;;;;;7.20;7.20;;;;;;;;5050731;29;8849;-75
2023/04/06 07:13:47;;;;;;;;;1.60;1.60;;;;;;;;5020071;29;8794;-75
2023/04/06 07:16:19;;;;;;;;;6.80;6.80;;;;;;;;5050791;29;8806;-75
2023/04/06 07:18:51;;;;;;;;;2.20;2.20;;;;;;;;5051015;29;8794;-75
2023/04/06 07:21:22;;;;;;;;;0.00;0.00;;;;;;;;5067562;29;8927;-75
2023/04/06 07:23:57;;;;;;;;;0.60;0.60;;;;;;;;5051021;29;8793;-75
2023/04/06 07:26:28;;;;;;;;;0.00;0.00;;;;;;;;5050968;29;8801;-75
2023/04/06 07:29:00;;;;;;;;;0.40;0.40;;;;;;;;5035070;29;8881;-76
2023/04/06 07:31:33;;;;;;;;;0.00;0.00;;;;;;;;5050587;29;8828;-76
2023/04/06 07:34:04;;;;;;;;;1.00;1.00;;;;;;;;5050584;29;8924;-76
2023/04/06 07:36:37;;;;;;;;;0.00;0.00;;;;;;;;5035449;29;8871;-76
2023/04/06 07:39:09;;;;;;;;;0.40;0.40;;;;;;;;5050985;29;8798;-76
2023/04/06 07:41:41;;;;;;;;;2.80;2.80;;;;;;;;5034947;29;8802;-76
2023/04/06 07:44:13;;;;;;;;;0.00;0.00;;;;;;;;5034867;29;8865;-76
2023/04/06 07:46:45;;;;;;;;;2.00;2.00;;;;;;;;5019123;29;8802;-76
2023/04/06 07:49:17;;;;;;;;;2.40;2.40;;;;;;;;5050111;29;8818;-76
2023/04/06 07:51:52;;;;;;;;;0.00;0.00;;;;;;;;5034794;29;8821;-76
2023/04/06 07:54:25;;;;;;;;;0.20;0.20;;;;;;;;5019624;29;8782;-76
2023/04/06 07:56:56;;;;;;;;;7.80;7.80;;;;;;;;5031175;29;8871;-75
2023/04/06 07:59:28;;;;;;;;;1.80;1.80;;;;;;;;5029953;29;8800;-76
2023/04/06 08:01:59;;;;;;;;;1.60;1.60;;;;;;;;5047121;29;8798;-69
2023/04/06 08:04:30;;;;;;;;;0.40;0.40;;;;;;;;5030145;29;8826;-69
2023/04/06 08:07:01;;;;;;;;;0.50;0.50;;;;;;;;5030332;29;8837;-69
2023/04/06 08:09:32;;;;;;;;;0.00;0.00;;;;;;;;5029910;29;9744;-69
2023/04/06 08:12:03;;;;;;;;;0.00;0.00;;;;;;;;5046970;29;8826;-69
2023/04/06 08:14:34;;;;;;;;;1.20;1.20;;;;;;;;5030054;29;8802;-69
2023/04/06 08:17:05;;;;;;;;;2.00;2.00;;;;;;;;5030298;29;9614;-69
2023/04/06 08:19:37;;;;;;;;;1.00;1.00;;;;;;;;5029933;29;8827;-69
2023/04/06 08:22:08;;;;;;;;;0.80;0.80;;;;;;;;5029841;29;8802;-69
2023/04/06 08:24:39;;;;;;;;;0.00;0.00;;;;;;;;5014823;29;8803;-69
2023/04/06 08:27:10;;;;;;;;;0.00;0.00;;;;;;;;5029900;29;8849;-69
2023/04/06 08:29:59;;;;;;;;;0.40;0.40;;;;;;;;5029865;29;8814;-69
2023/04/06 08:32:30;;;;;;;;;1.25;1.25;;;;;;;;5029888;29;8893;-69
2023/04/06 08:35:01;;;;;;;;;0.00;0.00;;;;;;;;5046835;29;8945;-69
2023/04/06 08:37:51;;;;;;;;;6.80;6.80;;;;;;;;5046773;29;9503;-69
2023/04/06 08:40:22;;;;;;;;;6.00;6.00;;;;;;;;5046666;29;8826;-69
2023/04/06 08:43:13;;;;;;;;;2.20;2.20;;;;;;;;5030157;29;8798;-69
2023/04/06 08:45:44;;;;;;;;;0.00;0.00;;;;;;;;5030487;29;8794;-69
2023/04/06 08:48:16;;;;;;;;;0.00;0.00;;;;;;;;5029793;29;8822;-68
2023/04/06 08:50:47;;;;;;;;;0.00;0.00;;;;;;;;5046634;29;8830;-68
2023/04/06 08:53:18;;;;;;;;;0.00;0.00;;;;;;;;5046359;29;8821;-69
2023/04/06 08:55:51;;;;;;;;;1.25;1.25;;;;;;;;5035941;29;8810;-69
2023/04/06 08:58:22;;;;;;;;;0.00;0.00;;;;;;;;5046578;29;10747;-69
2023/04/06 09:00:53;;;;;;;;;0.00;0.00;;;;;;;;5048791;29;8801;-69
2023/04/06 09:03:26;;;;;;;;;1.00;1.00;;;;;;;;5033489;29;8813;-69
2023/04/06 09:05:57;;;;;;;;;11.60;11.60;;;;;;;;5065488;29;8906;-69
2023/04/06 09:08:28;;;;;;;;;0.00;0.00;;;;;;;;5065508;29;8797;-69
2023/04/06 09:11:00;;;;;;;;;0.00;0.00;;;;;;;;5065049;29;8842;-69
2023/04/06 09:13:32;;;;;;;;;0.00;0.00;;;;;;;;5033386;29;8805;-69
2023/04/06 09:16:04;;;;;;;;;1.00;1.00;;;;;;;;5017818;29;8856;-69
2023/04/06 09:18:53;;;;;;;;;0.80;0.80;;;;;;;;5048927;29;8884;-69
2023/04/06 09:21:25;;;;;;;;;6.50;6.50;;;;;;;;5065755;29;8818;-69
2023/04/06 09:24:00;;;;;;;;;0.00;0.00;;;;;;;;5048485;29;11043;-69
2023/04/06 09:26:49;;;;;;;;;0.00;0.00;;;;;;;;5063350;29;8848;-69
2023/04/06 09:29:26;;;;;;;;;0.00;0.00;;;;;;;;5064543;29;8834;-69
2023/04/06 09:32:07;;;;;;;;;0.00;0.00;;;;;;;;5048789;29;8858;-68
2023/04/06 09:34:38;;;;;;;;;1.00;1.00;;;;;;;;5045066;29;8845;-69
2023/04/06 09:37:13;;;;;;;;;0.00;0.00;;;;;;;;5046981;29;8844;-68
2023/04/06 09:39:44;;;;;;;;;0.00;0.00;;;;;;;;5063497;29;8893;-68
2023/04/06 09:42:25;;;;;;;;;83.00;64.80;;;;;;;;5054742;29;8835;-69
2023/04/06 09:44:56;;;;;;;;;0.00;0.00;;;;;;;;5031099;29;9662;-69
2023/04/06 09:47:45;;;;;;;;;0.00;0.00;;;;;;;;5046019;29;8834;-68
2023/04/06 09:50:18;;;;;;;;;0.00;0.00;;;;;;;;5044277;29;8837;-68
2023/04/06 09:52:51;;;;;;;;;0.00;0.00;;;;;;;;5028570;29;8829;-68
2023/04/06 09:55:40;;;;;;;;;1.00;1.00;;;;;;;;5047939;29;8837;-68
2023/04/06 09:58:12;;;;;;;;;0.00;0.00;;;;;;;;5065223;29;9529;-68
2023/04/06 10:01:05;;;;;;;;;0.00;0.00;;;;;;;;5048180;29;8801;-68
2023/04/06 10:03:42;;;;;;;;;0.00;0.00;;;;;;;;5064477;29;8833;-68
2023/04/06 10:06:14;;;;;;;;;0.00;0.00;;;;;;;;5064237;29;8861;-68
2023/04/06 10:08:47;;;;;;;;;0.00;0.00;;;;;;;;5047733;29;8833;-68
2023/04/06 10:11:18;;;;;;;;;0.00;0.00;;;;;;;;5047675;29;9590;-69
2023/04/06 10:13:50;;;;;;;;;0.00;0.00;;;;;;;;5064782;29;8806;-69
2023/04/06 10:16:21;;;;;;;;;0.00;0.00;;;;;;;;5032392;29;8842;-68
2023/04/06 10:18:54;;;;;;;;;0.00;0.00;;;;;;;;5064266;29;8821;-69
2023/04/06 10:21:27;;;;;;;;;0.00;0.00;;;;;;;;5064780;29;8841;-68
2023/04/06 10:24:00;;;;;;;;;1.00;1.00;;;;;;;;5051317;29;8817;-68
2023/04/06 10:27:00;;;;;;;;;0.20;0.20;;;;;;;;5051058;29;8818;-69
2023/04/06 10:29:44;;;;;;;;;0.00;0.00;;;;;;;;5050010;29;8850;-69
2023/04/06 10:32:15;;;;;;;;;0.00;0.00;;;;;;;;5035949;29;8853;-69
2023/04/06 10:34:46;;;;;;;;;0.00;0.00;;;;;;;;5051512;29;8825;-68
2023/04/06 10:37:19;;;;;;;;;0.00;0.00;;;;;;;;5035419;29;9608;-69
2023/04/06 10:39:58;;;;;;;;;0.00;0.00;;;;;;;;5050953;29;8813;-68
2023/04/06 10:42:38;;;;;;;;;0.00;0.00;;;;;;;;5079047;29;8890;-69
2023/04/06 10:45:31;;;;;;;;;3.00;3.00;;;;;;;;5053621;29;8854;-68
2023/04/06 10:48:12;;;;;;;;;4.60;4.60;;;;;;;;5067229;29;8810;-69
2023/04/06 10:50:50;;;;;;;;;6.00;6.00;;;;;;;;5050281;29;9088;-68
2023/04/06 10:53:22;;;;;;;;;1.60;1.60;;;;;;;;5050983;29;8856;-67
2023/04/06 10:55:56;;;;;;;;;1.00;1.00;;;;;;;;5067899;29;8830;-68
2023/04/06 10:58:28;;;;;;;;;0.00;0.00;;;;;;;;5035002;29;8818;-67
2023/04/06 11:00:59;;;;;;;;;6.80;6.80;;;;;;;;5065054;29;8852;-69
2023/04/06 11:03:32;;;;;;;;;0.00;0.00;;;;;;;;5065049;29;8839;-68
2023/04/06 11:06:03;;;;;;;;;0.00;0.00;;;;;;;;5048029;29;8853;-69
2023/04/06 11:08:33;;;;;;;;;0.00;0.00;;;;;;;;5064722;29;8814;-69
2023/04/06 11:11:06;;;;;;;;;0.00;0.00;;;;;;;;5065293;29;8851;-69
2023/04/06 11:13:38;;;;;;;;;0.00;0.00;;;;;;;;5064871;29;8825;-69
2023/04/06 11:16:16;;;;;;;;;0.00;0.00;;;;;;;;5047965;29;8814;-68
2023/04/06 11:18:47;;;;;;;;;0.60;0.60;;;;;;;;5050848;29;8786;-68
2023/04/06 11:21:19;;;;;;;;;0.00;0.00;;;;;;;;5045109;29;8905;-68
2023/04/06 11:23:49;;;;;;;;;0.00;0.00;;;;;;;;5031195;29;9118;-68
2023/04/06 11:26:43;;;;;;;;;0.60;0.60;;;;;;;;5031337;29;8827;-68
2023/04/06 11:29:26;;;;;;;;;1.80;1.80;;;;;;;;5034803;29;8844;-69
2023/04/06 11:32:01;;;;;;;;;1.40;1.40;;;;;;;;5050530;29;8845;-68
2023/04/06 11:34:39;;;;;;;;;0.00;0.00;;;;;;;;5067039;29;8813;-68
2023/04/06 11:37:11;;;;;;;;;0.00;0.00;;;;;;;;5050384;29;8794;-68
2023/04/06 11:39:42;;;;;;;;;0.60;0.40;;;;;;;;5049026;29;8802;-68
2023/04/06 11:42:20;;;;;;;;;7.00;7.00;;;;;;;;5048655;29;8820;-68
2023/04/06 11:44:53;;;;;;;;;0.80;0.80;;;;;;;;5066645;29;8794;-69
2023/04/06 11:47:34;;;;;;;;;0.00;0.00;;;;;;;;5049949;29;8813;-68
2023/04/06 11:50:09;;;;;;;;;0.25;0.25;;;;;;;;5066420;29;8828;-68
2023/04/06 11:52:41;;;;;;;;;0.00;0.00;;;;;;;;5049546;29;8801;-69
2023/04/06 11:55:36;;;;;;;;;0.00;0.00;;;;;;;;5036528;29;8825;-68
2023/04/06 11:58:07;;;;;;;;;0.00;0.00;;;;;;;;5050107;29;8823;-68
2023/04/06 12:00:38;;;;;;;;;0.00;0.00;;;;;;;;5066294;29;8852;-68
2023/04/06 12:03:10;;;;;;;;;0.00;0.00;;;;;;;;5066883;29;8797;-68
2023/04/06 12:05:40;;;;;;;;;0.00;0.00;;;;;;;;5065923;29;10968;-69
2023/04/06 12:08:11;;;;;;;;;1.00;1.00;;;;;;;;5034507;29;8796;-68
2023/04/06 12:11:02;;;;;;;;;7.80;7.80;;;;;;;;5066221;29;8781;-68
2023/04/06 12:13:33;;;;;;;;;8.20;7.80;;;;;;;;5065098;29;8929;-68
2023/04/06 12:16:05;;;;;;;;;3.25;1.75;;;;;;;;5066534;29;8944;-69
2023/04/06 12:18:36;;;;;;;;;4.20;4.20;;;;;;;;5049599;29;9916;-70
2023/04/06 12:21:07;;;;;;;;;0.00;0.00;;;;;;;;5066013;29;9669;-68
2023/04/06 12:23:38;;;;;;;;;3.20;3.20;;;;;;;;5049169;29;8816;-67
2023/04/06 12:26:09;;;;;;;;;1.00;1.00;;;;;;;;5066417;29;8790;-68
2023/04/06 12:28:40;;;;;;;;;2.60;2.60;;;;;;;;5064861;29;8790;-67
2023/04/06 12:31:15;;;;;;;;;1.00;1.00;;;;;;;;5065906;29;8825;-67
2023/04/06 12:33:49;;;;;;;;;3.00;3.00;;;;;;;;5066046;29;8797;-67
2023/04/06 12:36:20;;;;;;;;;16.60;16.60;;;;;;;;5032854;29;8889;-67
2023/04/06 12:38:51;;;;;;;;;0.00;0.00;;;;;;;;5015174;29;8831;-67
2023/04/06 12:41:23;;;;;;;;;1.00;1.00;;;;;;;;5049784;29;8806;-67
2023/04/06 12:43:54;;;;;;;;;0.00;0.00;;;;;;;;5065760;29;8802;-68
2023/04/06 12:46:25;;;;;;;;;2.00;2.00;;;;;;;;5048172;29;8822;-68
2023/04/06 12:48:58;;;;;;;;;0.00;0.00;;;;;;;;5048870;29;8851;-68
2023/04/06 12:51:31;;;;;;;;;0.00;0.00;;;;;;;;5046597;29;8994;-68
2023/04/06 12:54:02;;;;;;;;;60.20;46.60;;;;;;;;5032946;29;8877;-68
2023/04/06 12:56:52;;;;;;;;;2.00;2.00;;;;;;;;5047243;29;8835;-68
2023/04/06 12:59:24;;;;;;;;;3.20;3.20;;;;;;;;5048957;29;8794;-68
2023/04/06 13:01:55;;;;;;;;;1.00;1.00;;;;;;;;5048557;29;8809;-68
2023/04/06 13:04:26;;;;;;;;;6.00;6.00;;;;;;;;5065608;29;8829;-68
2023/04/06 13:06:57;;;;;;;;;1.25;1.25;;;;;;;;5064613;29;11476;-68
2023/04/06 13:09:31;;;;;;;;;1.00;1.00;;;;;;;;5048309;29;8836;-68
2023/04/06 13:12:02;;;;;;;;;1.20;1.20;;;;;;;;5048288;29;8810;-68
2023/04/06 13:14:33;;;;;;;;;1.00;1.00;;;;;;;;5048836;29;8770;-68
2023/04/06 13:17:04;;;;;;;;;2.00;2.00;;;;;;;;5065719;29;8833;-68
2023/04/06 13:19:35;;;;;;;;;0.00;0.00;;;;;;;;5048759;29;8803;-68
2023/04/06 13:22:06;;;;;;;;;0.00;0.00;;;;;;;;5046627;29;8818;-68
2023/04/06 13:24:37;;;;;;;;;1.20;1.20;;;;;;;;5048420;29;8810;-68
2023/04/06 13:27:09;;;;;;;;;0.00;0.00;;;;;;;;5065145;29;8786;-68
2023/04/06 13:29:40;;;;;;;;;5.80;5.80;;;;;;;;5063998;29;8818;-68
2023/04/06 13:32:11;;;;;;;;;0.20;0.20;;;;;;;;5048099;29;8813;-68
2023/04/06 13:34:44;;;;;;;;;0.00;0.00;;;;;;;;5044133;29;8892;-68
2023/04/06 13:37:34;;;;;;;;;0.00;0.00;;;;;;;;5043720;29;9088;-68
2023/04/06 13:40:05;;;;;;;;;0.60;0.60;;;;;;;;5064386;29;9538;-68
2023/04/06 13:42:55;;;;;;;;;1.80;1.80;;;;;;;;5061980;29;9665;-68
2023/04/06 13:45:48;;;;;;;;;0.00;0.00;;;;;;;;5083259;29;8871;-68
2023/04/06 13:48:19;;;;;;;;;0.00;0.00;;;;;;;;5046934;29;8820;-70
2023/04/06 13:50:50;;;;;;;;;1.40;1.40;;;;;;;;5047703;29;8868;-69
2023/04/06 13:53:21;;;;;;;;;3.00;3.00;;;;;;;;5063274;29;8848;-69
2023/04/06 13:55:53;;;;;;;;;1.00;1.00;;;;;;;;5047879;29;8896;-69
2023/04/06 13:58:24;;;;;;;;;0.00;0.00;;;;;;;;5066849;29;8786;-68
2023/04/06 14:01:15;;;;;;;;;1.00;1.00;;;;;;;;5067568;29;8891;-68
2023/04/06 14:03:47;;;;;;;;;4.25;4.25;;;;;;;;5036045;29;8897;-69
2023/04/06 14:06:18;;;;;;;;;1.00;1.00;;;;;;;;5051557;29;11517;-68
2023/04/06 14:08:49;;;;;;;;;0.00;0.00;;;;;;;;5051628;29;8806;-68
2023/04/06 14:11:38;;;;;;;;;2.00;2.00;;;;;;;;5068484;29;8901;-68
2023/04/06 14:14:09;;;;;;;;;0.75;0.25;;;;;;;;5051440;29;8789;-69
2023/04/06 14:16:43;;;;;;;;;1.00;1.00;;;;;;;;5066823;29;8837;-68
2023/04/06 14:19:17;;;;;;;;;0.00;0.00;;;;;;;;5066610;29;9669;-69
2023/04/06 14:21:48;;;;;;;;;1.00;1.00;;;;;;;;5037429;29;8841;-69
2023/04/06 14:24:19;;;;;;;;;6.60;6.60;;;;;;;;5063285;29;8940;-69
2023/04/06 14:26:50;;;;;;;;;0.80;0.80;;;;;;;;5018060;29;8855;-69
2023/04/06 14:29:21;;;;;;;;;6.00;6.00;;;;;;;;5046879;29;8815;-70
2023/04/06 14:31:52;;;;;;;;;0.00;0.00;;;;;;;;5056156;29;9856;-69
2023/04/06 14:34:23;;;;;;;;;3.20;2.80;;;;;;;;5048165;29;8810;-70
2023/04/06 14:36:55;;;;;;;;;2.00;2.00;;;;;;;;5033444;29;8806;-70
2023/04/06 14:39:25;;;;;;;;;0.40;0.40;;;;;;;;5046338;29;8827;-70
2023/04/06 14:42:15;;;;;;;;;2.00;2.00;;;;;;;;5030457;29;8953;-70
2023/04/06 14:44:46;;;;;;;;;0.00;0.00;;;;;;;;5030196;29;8835;-67
2023/04/06 14:47:20;;;;;;;;;7.20;7.20;;;;;;;;5045737;29;8855;-68
2023/04/06 14:49:51;;;;;;;;;3.00;2.00;;;;;;;;5030189;29;8788;-67
2023/04/06 14:52:22;;;;;;;;;61.20;46.20;;;;;;;;5055410;29;8845;-68
2023/04/06 14:54:53;;;;;;;;;3.25;3.25;;;;;;;;5061848;29;8951;-69
2023/04/06 14:57:24;;;;;;;;;4.00;4.00;;;;;;;;5050585;29;11450;-68
2023/04/06 14:59:55;;;;;;;;;0.00;0.00;;;;;;;;5049656;29;8798;-68
2023/04/06 15:02:44;;;;;;;;;2.00;2.00;;;;;;;;5067096;29;11548;-68
2023/04/06 15:05:15;;;;;;;;;3.00;3.00;;;;;;;;5050487;29;8797;-69
2023/04/06 15:07:46;;;;;;;;;3.20;3.20;;;;;;;;5066954;29;10112;-69
2023/04/06 15:10:36;;;;;;;;;1.25;1.25;;;;;;;;5067767;29;8817;-69
2023/04/06 15:13:07;;;;;;;;;3.00;3.00;;;;;;;;5050651;29;9561;-68
2023/04/06 15:15:56;;;;;;;;;0.00;0.00;;;;;;;;5050239;29;8928;-68
2023/04/06 15:18:27;;;;;;;;;1.00;1.00;;;;;;;;5050449;29;8976;-68
2023/04/06 15:20:58;;;;;;;;;1.00;1.00;;;;;;;;5066629;29;10272;-68
2023/04/06 15:23:29;;;;;;;;;1.00;1.00;;;;;;;;5051101;29;11443;-68
2023/04/06 15:26:01;;;;;;;;;0.00;0.00;;;;;;;;5051878;29;11405;-67
2023/04/06 15:28:31;;;;;;;;;1.40;1.40;;;;;;;;5067735;29;8806;-69
2023/04/06 15:31:05;;;;;;;;;2.00;2.00;;;;;;;;5066463;29;8860;-69
2023/04/06 15:33:37;;;;;;;;;7.00;7.00;;;;;;;;5062584;29;9842;-69
2023/04/06 15:36:22;;;;;;;;;1.60;1.60;;;;;;;;5050170;29;8818;-69
2023/04/06 15:38:52;;;;;;;;;1.20;1.20;;;;;;;;5050190;29;8802;-69
2023/04/06 15:41:42;;;;;;;;;0.00;0.00;;;;;;;;5063462;29;8809;-69